createdAt,value
2018-01-07T00:01:40.318Z,77.29
2018-01-07T00:04:08.868Z,76.97
2018-01-07T00:06:37.580Z,77.28
2018-01-07T00:09:06.268Z,78.32
2018-01-07T00:11:34.916Z,77.87
2018-01-07T00:14:03.637Z,76.07
2018-01-07T00:16:32.432Z,76.35
2018-01-07T00:19:01.118Z,75.55
2018-01-07T00:21:29.757Z,75.73
2018-01-07T00:23:59.253Z,76.63
2018-01-07T00:26:28.591Z,76.50
2018-01-07T00:28:57.289Z,77.50
2018-01-07T00:31:26.083Z,77.29
2018-01-07T00:33:54.721Z,76.39
2018-01-07T00:36:24.175Z,76.67
2018-01-07T00:38:52.860Z,75.97
2018-01-07T00:41:21.638Z,76.39
2018-01-07T00:43:50.325Z,78.03
2018-01-07T00:46:19.121Z,77.32
2018-01-07T00:48:47.808Z,75.66
2018-01-07T00:51:16.446Z,76.28
2018-01-07T00:53:46.039Z,77.33
2018-01-07T00:56:15.499Z,79.04
2018-01-07T00:58:44.086Z,77.60
2018-01-07T01:01:12.872Z,76.49
2018-01-07T01:03:41.556Z,75.65
2018-01-07T01:06:10.136Z,76.83
2018-01-07T01:08:38.873Z,78.55
2018-01-07T01:11:08.316Z,76.83
2018-01-07T01:13:37.012Z,76.22
2018-01-07T01:16:05.808Z,77.23
2018-01-07T01:18:34.493Z,77.03
2018-01-07T01:21:03.071Z,77.06
2018-01-07T01:23:31.866Z,76.35
2018-01-07T01:26:00.551Z,75.53
2018-01-07T01:28:29.100Z,76.28
2018-01-07T01:30:57.829Z,77.42
2018-01-07T01:33:26.500Z,76.52
2018-01-07T01:35:55.185Z,76.13
2018-01-07T01:38:24.136Z,77.20
2018-01-07T01:40:52.870Z,78.21
2018-01-07T01:43:21.593Z,77.50
2018-01-07T01:45:51.413Z,76.37
2018-01-07T01:48:20.875Z,76.79
2018-01-07T01:50:49.546Z,75.72
2018-01-07T01:53:18.291Z,74.87
2018-01-07T01:55:53.030Z,76.23
2018-01-07T01:58:22.726Z,76.11
2018-01-07T02:00:52.181Z,76.13
2018-01-07T02:03:20.869Z,77.32
2018-01-07T02:05:49.747Z,77.14
2018-01-07T02:08:18.447Z,78.36
2018-01-07T02:10:47.189Z,77.96
2018-01-07T02:13:16.279Z,78.10
2018-01-07T02:15:45.733Z,78.76
2018-01-07T02:18:14.420Z,77.77
2018-01-07T02:20:43.160Z,77.27
2018-01-07T02:23:11.889Z,76.92
2018-01-07T02:25:40.686Z,76.79
2018-01-07T02:28:09.568Z,77.01
2018-01-07T02:30:38.364Z,76.80
2018-01-07T02:33:07.051Z,77.45
2018-01-07T02:35:35.835Z,77.08
2018-01-07T02:38:04.509Z,77.06
2018-01-07T02:40:33.207Z,77.64
2018-01-07T02:43:02.101Z,77.06
2018-01-07T02:45:30.787Z,76.50
2018-01-07T02:47:59.472Z,77.67
2018-01-07T02:50:28.355Z,77.75
2018-01-07T02:52:56.946Z,75.93
2018-01-07T02:55:25.632Z,76.94
2018-01-07T02:57:54.721Z,77.39
2018-01-07T03:00:23.406Z,76.58
2018-01-07T03:02:52.036Z,76.51
2018-01-07T03:05:21.655Z,76.38
2018-01-07T03:07:50.385Z,77.19
2018-01-07T03:10:19.039Z,76.29
2018-01-07T03:12:47.756Z,77.41
2018-01-07T03:15:16.401Z,77.01
2018-01-07T03:17:45.128Z,76.55
2018-01-07T03:20:14.225Z,77.04
2018-01-07T03:22:42.917Z,75.01
2018-01-07T03:25:11.603Z,74.72
2018-01-07T03:27:40.486Z,74.54
2018-01-07T03:30:09.131Z,74.79
2018-01-07T03:32:37.858Z,74.32
2018-01-07T03:35:06.857Z,73.90
2018-01-07T03:37:35.437Z,73.42
2018-01-07T03:40:04.152Z,73.36
2018-01-07T03:42:33.694Z,73.98
2018-01-07T03:45:02.418Z,73.47
2018-01-07T03:47:31.004Z,74.72
2018-01-07T03:49:59.697Z,74.49
2018-01-07T03:52:28.264Z,75.45
2018-01-07T03:54:56.908Z,75.54
2018-01-07T03:57:25.638Z,76.91
2018-01-07T03:59:54.293Z,78.53
2018-01-07T04:02:23.009Z,77.39
2018-01-07T04:04:51.696Z,75.72
2018-01-07T04:07:20.393Z,76.22
2018-01-07T04:09:49.067Z,77.75
2018-01-07T04:12:17.753Z,76.08
2018-01-07T04:14:46.439Z,75.87
2018-01-07T04:17:15.333Z,76.43
2018-01-07T04:19:44.309Z,75.40
2018-01-07T04:22:13.012Z,75.67
2018-01-07T04:24:41.698Z,75.37
2018-01-07T04:27:10.482Z,74.68
2018-01-07T04:29:39.168Z,76.53
2018-01-07T04:32:07.755Z,76.81
2018-01-07T04:34:36.689Z,76.59
2018-01-07T04:37:06.108Z,76.09
2018-01-07T04:39:34.734Z,76.36
2018-01-07T04:42:03.351Z,76.70
2018-01-07T04:44:32.061Z,76.05
2018-01-07T04:47:00.792Z,76.22
2018-01-07T04:49:29.576Z,76.22
2018-01-07T04:51:58.164Z,75.50
2018-01-07T04:54:26.850Z,75.71
2018-01-07T04:56:55.633Z,77.28
2018-01-07T04:59:24.266Z,78.37
2018-01-07T05:01:53.681Z,77.99
2018-01-07T05:04:22.802Z,77.71
2018-01-07T05:06:51.507Z,77.12
2018-01-07T05:09:20.099Z,76.70
2018-01-07T05:11:48.879Z,76.30
2018-01-07T05:14:17.522Z,76.48
2018-01-07T05:16:46.251Z,74.82
2018-01-07T05:19:15.404Z,75.33
2018-01-07T05:21:44.852Z,75.41
2018-01-07T05:24:13.537Z,75.04
2018-01-07T05:26:42.531Z,75.21
2018-01-07T05:29:11.216Z,74.92
2018-01-07T05:31:39.901Z,74.52
2018-01-07T05:34:08.735Z,74.61
2018-01-07T05:36:38.099Z,75.74
2018-01-07T05:39:06.746Z,74.26
2018-01-07T05:41:35.569Z,74.50
2018-01-07T05:44:04.210Z,75.57
2018-01-07T05:46:32.941Z,74.65
2018-01-07T05:49:01.634Z,73.90
2018-01-07T05:51:30.313Z,74.23
2018-01-07T05:53:58.955Z,73.85
2018-01-07T05:56:27.949Z,73.69
2018-01-07T05:58:56.675Z,75.27
2018-01-07T06:01:25.412Z,74.54
2018-01-07T06:03:54.876Z,75.04
2018-01-07T06:06:23.446Z,75.80
2018-01-07T06:08:52.131Z,76.44
2018-01-07T06:11:21.103Z,75.14
2018-01-07T06:13:49.772Z,75.14
2018-01-07T06:16:18.496Z,74.48
2018-01-07T06:18:47.458Z,74.43
2018-01-07T06:21:16.175Z,75.29
2018-01-07T06:23:44.862Z,73.60
2018-01-07T06:26:13.657Z,73.76
2018-01-07T06:28:42.324Z,74.67
2018-01-07T06:31:10.966Z,73.97
2018-01-07T06:33:40.636Z,74.12
2018-01-07T06:36:09.184Z,72.58
2018-01-07T06:38:37.897Z,71.35
2018-01-07T06:41:06.892Z,71.09
2018-01-07T06:43:35.534Z,70.33
2018-01-07T06:46:04.262Z,70.81
2018-01-07T06:48:33.058Z,70.12
2018-01-07T06:51:01.633Z,69.25
2018-01-07T06:53:30.280Z,68.76
2018-01-07T06:55:59.321Z,69.25
2018-01-07T06:58:27.999Z,70.29
2018-01-07T07:00:56.684Z,69.09
2018-01-07T07:03:25.373Z,68.41
2018-01-07T07:05:53.959Z,68.41
2018-01-07T07:08:22.742Z,66.94
2018-01-07T07:10:51.681Z,65.58
2018-01-07T07:13:21.146Z,66.10
2018-01-07T07:15:49.786Z,65.53
2018-01-07T07:18:18.883Z,64.36
2018-01-07T07:20:47.609Z,64.44
2018-01-07T07:23:16.294Z,64.39
2018-01-07T07:25:45.288Z,67.04
2018-01-07T07:28:13.973Z,66.50
2018-01-07T07:30:42.646Z,66.40
2018-01-07T07:33:11.246Z,66.96
2018-01-07T07:35:39.932Z,64.48
2018-01-07T07:38:08.571Z,64.36
2018-01-07T07:40:38.067Z,64.37
2018-01-07T07:43:06.801Z,62.42
2018-01-07T07:45:35.424Z,64.70
2018-01-07T07:48:05.047Z,63.26
2018-01-07T07:50:33.781Z,64.00
2018-01-07T07:53:02.432Z,62.30
2018-01-07T07:55:31.196Z,61.22
2018-01-07T07:58:00.662Z,61.88
2018-01-07T08:00:29.208Z,60.51
2018-01-07T08:02:58.277Z,60.92
2018-01-07T08:05:27.739Z,57.22
2018-01-07T08:07:56.425Z,58.67
2018-01-07T08:10:25.381Z,59.87
2018-01-07T08:12:54.103Z,58.59
2018-01-07T08:15:22.743Z,58.79
2018-01-07T08:17:51.685Z,57.80
2018-01-07T08:20:20.328Z,59.44
2018-01-07T08:22:49.056Z,59.78
2018-01-07T08:25:17.990Z,59.79
2018-01-07T08:27:47.308Z,57.18
2018-01-07T08:30:16.024Z,57.17
2018-01-07T08:32:45.821Z,58.18
2018-01-07T08:35:15.331Z,59.12
2018-01-07T08:37:43.905Z,59.30
2018-01-07T08:40:12.643Z,59.52
2018-01-07T08:42:42.101Z,59.72
2018-01-07T08:45:10.824Z,55.53
2018-01-07T08:47:40.493Z,56.99
2018-01-07T08:50:09.179Z,56.63
2018-01-07T08:52:37.767Z,56.34
2018-01-07T08:55:06.550Z,57.12
2018-01-07T08:57:35.236Z,56.71
2018-01-07T09:00:03.824Z,55.40
2018-01-07T09:02:32.816Z,52.84
2018-01-07T09:05:01.502Z,52.84
2018-01-07T09:07:30.080Z,52.65
2018-01-07T09:09:58.973Z,52.63
2018-01-07T09:12:27.658Z,51.17
2018-01-07T09:14:56.344Z,51.03
2018-01-07T09:17:25.140Z,51.12
2018-01-07T09:19:53.832Z,51.45
2018-01-07T09:22:22.404Z,52.64
2018-01-07T09:24:51.196Z,52.11
2018-01-07T09:27:19.833Z,53.43
2018-01-07T09:29:49.285Z,50.89
2018-01-07T09:32:18.176Z,48.39
2018-01-07T09:34:46.862Z,52.69
2018-01-07T09:37:15.649Z,49.42
2018-01-07T09:39:44.401Z,48.22
2018-01-07T09:42:13.117Z,48.38
2018-01-07T09:44:41.764Z,48.55
2018-01-07T09:47:10.495Z,49.71
2018-01-07T09:49:39.174Z,45.62
2018-01-07T09:52:07.761Z,46.94
2018-01-07T09:54:36.655Z,46.43
2018-01-07T09:57:05.441Z,47.12
2018-01-07T09:59:34.121Z,44.30
2018-01-07T10:02:03.188Z,48.47
2018-01-07T10:04:31.907Z,47.25
2018-01-07T10:07:00.591Z,49.00
2018-01-07T10:09:29.541Z,48.08
2018-01-07T10:11:58.269Z,47.88
2018-01-07T10:14:26.856Z,49.42
2018-01-07T10:16:55.948Z,48.41
2018-01-07T10:19:24.635Z,46.54
2018-01-07T10:21:53.224Z,46.59
2018-01-07T10:24:21.925Z,46.62
2018-01-07T10:26:51.364Z,45.95
2018-01-07T10:29:20.860Z,45.24
2018-01-07T10:31:50.377Z,45.25
2018-01-07T10:34:19.108Z,42.77
2018-01-07T10:36:47.793Z,43.92
2018-01-07T10:39:16.884Z,42.36
2018-01-07T10:41:45.570Z,44.16
2018-01-07T10:44:14.257Z,42.36
2018-01-07T10:46:43.052Z,40.96
2018-01-07T10:49:11.608Z,37.94
2018-01-07T10:51:40.218Z,38.13
2018-01-07T10:54:09.013Z,39.40
2018-01-07T10:56:37.795Z,39.47
2018-01-07T10:59:06.481Z,38.67
2018-01-07T11:01:40.568Z,40.07
2018-01-07T11:04:15.733Z,39.53
2018-01-07T11:06:44.451Z,38.07
2018-01-07T11:09:13.872Z,39.85
2018-01-07T11:11:43.318Z,38.26
2018-01-07T11:14:12.006Z,38.11
2018-01-07T11:16:40.690Z,37.21
2018-01-07T11:19:09.484Z,36.81
2018-01-07T11:21:38.165Z,37.76
2018-01-07T11:24:06.856Z,37.83
2018-01-07T11:26:35.495Z,37.75
2018-01-07T11:29:04.428Z,38.17
2018-01-07T11:31:33.012Z,38.64
2018-01-07T11:34:01.699Z,37.00
2018-01-07T11:36:30.483Z,37.07
2018-01-07T11:38:59.169Z,36.43
2018-01-07T11:41:27.854Z,34.80
2018-01-07T11:43:56.649Z,37.23
2018-01-07T11:46:25.289Z,35.97
2018-01-07T11:48:54.021Z,37.77
2018-01-07T11:51:22.853Z,36.94
2018-01-07T11:53:52.268Z,35.74
2018-01-07T11:56:21.001Z,35.79
2018-01-07T11:58:49.789Z,35.83
2018-01-07T12:01:19.025Z,36.50
2018-01-07T12:03:48.447Z,35.65
2018-01-07T12:06:17.336Z,37.00
2018-01-07T12:08:46.065Z,36.19
2018-01-07T12:11:14.749Z,37.90
2018-01-07T12:13:43.690Z,37.87
2018-01-07T12:16:13.142Z,38.05
2018-01-07T12:18:41.828Z,38.71
2018-01-07T12:21:10.769Z,38.66
2018-01-07T12:23:40.232Z,37.34
2018-01-07T12:26:08.902Z,37.42
2018-01-07T12:28:37.648Z,37.98
2018-01-07T12:31:07.119Z,37.06
2018-01-07T12:33:35.784Z,38.29
2018-01-07T12:36:04.575Z,38.76
2018-01-07T12:38:33.217Z,37.76
2018-01-07T12:41:02.666Z,38.15
2018-01-07T12:43:31.450Z,37.97
2018-01-07T12:46:00.136Z,39.64
2018-01-07T12:48:28.692Z,38.95
2018-01-07T12:50:57.608Z,39.37
2018-01-07T12:53:26.165Z,39.13
2018-01-07T12:55:54.878Z,39.92
2018-01-07T12:58:23.772Z,40.20
2018-01-07T13:00:52.458Z,41.08
2018-01-07T13:03:21.242Z,41.78
2018-01-07T13:05:49.958Z,42.82
2018-01-07T13:08:18.616Z,43.91
2018-01-07T13:10:47.299Z,44.92
2018-01-07T13:13:16.093Z,44.15
2018-01-07T13:15:44.764Z,43.81
2018-01-07T13:18:13.465Z,44.33
2018-01-07T13:20:42.250Z,43.99
2018-01-07T13:23:10.836Z,43.33
2018-01-07T13:25:39.392Z,43.26
2018-01-07T13:28:08.620Z,43.29
2018-01-07T13:30:37.396Z,43.36
2018-01-07T13:33:06.083Z,42.72
2018-01-07T13:35:34.831Z,43.97
2018-01-07T13:38:04.377Z,45.20
2018-01-07T13:40:33.061Z,48.09
2018-01-07T13:43:01.858Z,49.28
2018-01-07T13:45:30.433Z,50.15
2018-01-07T13:47:59.117Z,50.59
2018-01-07T13:50:28.110Z,50.44
2018-01-07T13:52:56.668Z,50.46
2018-01-07T13:55:25.382Z,49.91
2018-01-07T13:57:54.165Z,49.30
2018-01-07T14:00:22.852Z,47.83
2018-01-07T14:02:51.446Z,46.99
2018-01-07T14:05:20.432Z,47.79
2018-01-07T14:07:49.215Z,48.27
2018-01-07T14:10:17.862Z,49.48
2018-01-07T14:12:46.892Z,49.41
2018-01-07T14:15:15.577Z,48.47
2018-01-07T14:17:44.216Z,47.62
2018-01-07T14:20:13.678Z,47.92
2018-01-07T14:22:42.299Z,48.67
2018-01-07T14:25:11.695Z,48.53
2018-01-07T14:27:41.211Z,49.46
2018-01-07T14:30:10.658Z,50.56
2018-01-07T14:32:39.348Z,51.20
2018-01-07T14:35:08.042Z,52.28
2018-01-07T14:37:36.818Z,52.62
2018-01-07T14:40:05.504Z,54.15
2018-01-07T14:42:34.399Z,54.91
2018-01-07T14:45:03.140Z,56.49
2018-01-07T14:47:31.768Z,57.40
2018-01-07T14:50:00.596Z,57.13
2018-01-07T14:52:30.018Z,58.11
2018-01-07T14:54:58.747Z,58.87
2018-01-07T14:57:27.947Z,59.35
2018-01-07T14:59:56.536Z,59.85
2018-01-07T15:02:25.313Z,60.74
2018-01-07T15:04:54.133Z,60.43
2018-01-07T15:07:23.597Z,60.76
2018-01-07T15:09:52.291Z,60.93
2018-01-07T15:12:21.258Z,60.76
2018-01-07T15:14:49.873Z,60.84
2018-01-07T15:17:18.551Z,62.44
2018-01-07T15:19:47.290Z,62.97
2018-01-07T15:22:16.733Z,63.21
2018-01-07T15:24:45.429Z,64.32
2018-01-07T15:27:14.369Z,64.30
2018-01-07T15:29:43.788Z,65.08
2018-01-07T15:32:12.928Z,65.75
2018-01-07T15:34:42.114Z,65.95
2018-01-07T15:37:10.800Z,65.90
2018-01-07T15:39:39.439Z,66.33
2018-01-07T15:42:08.177Z,67.60
2018-01-07T15:44:36.965Z,67.26
2018-01-07T15:47:05.646Z,67.80
2018-01-07T15:49:34.435Z,68.08
2018-01-07T15:52:03.075Z,68.54
2018-01-07T15:54:31.774Z,68.48
2018-01-07T15:57:00.799Z,67.20
2018-01-07T15:59:29.427Z,67.05
2018-01-07T16:02:01.761Z,67.14
2018-01-07T16:04:38.488Z,68.14
2018-01-07T16:07:07.208Z,68.54
2018-01-07T16:09:35.900Z,69.00
2018-01-07T16:12:04.867Z,68.97
2018-01-07T16:14:33.676Z,69.45
2018-01-07T16:17:02.520Z,68.84
2018-01-07T16:19:32.177Z,69.42
2018-01-07T16:22:00.863Z,69.92
2018-01-07T16:24:29.416Z,70.18
2018-01-07T16:26:58.298Z,71.35
2018-01-07T16:29:27.019Z,71.45
2018-01-07T16:31:55.609Z,71.46
2018-01-07T16:34:24.494Z,72.20
2018-01-07T16:36:53.184Z,71.13
2018-01-07T16:39:21.810Z,70.87
2018-01-07T16:41:51.293Z,71.49
2018-01-07T16:44:19.859Z,70.89
2018-01-07T16:46:48.488Z,70.32
2018-01-07T16:49:18.028Z,72.18
2018-01-07T16:51:46.633Z,71.31
2018-01-07T16:54:15.411Z,70.95
2018-01-07T16:56:45.535Z,70.39
2018-01-07T16:59:14.156Z,69.90
2018-01-07T17:01:43.574Z,69.40
2018-01-07T17:04:12.413Z,69.68
2018-01-07T17:06:41.099Z,69.69
2018-01-07T17:09:09.785Z,69.24
2018-01-07T17:11:38.722Z,69.53
2018-01-07T17:14:08.113Z,69.97
2018-01-07T17:16:37.575Z,70.73
2018-01-07T17:19:06.326Z,69.97
2018-01-07T17:21:35.773Z,69.38
2018-01-07T17:24:04.510Z,69.05
2018-01-07T17:26:33.301Z,69.82
2018-01-07T17:29:02.747Z,69.87
2018-01-07T17:31:31.336Z,69.52
2018-01-07T17:34:00.328Z,69.26
2018-01-07T17:36:29.012Z,69.55
2018-01-07T17:38:57.592Z,69.11
2018-01-07T17:41:26.483Z,69.75
2018-01-07T17:43:55.552Z,68.90
2018-01-07T17:46:24.259Z,68.77
2018-01-07T17:48:53.056Z,68.95
2018-01-07T17:51:21.750Z,69.39
2018-01-07T17:53:50.427Z,68.99
2018-01-07T17:56:19.266Z,68.43
2018-01-07T17:58:47.995Z,68.38
2018-01-07T18:01:16.680Z,69.02
2018-01-07T18:03:45.475Z,69.40
2018-01-07T18:06:14.161Z,69.62
2018-01-07T18:08:42.836Z,69.56
2018-01-07T18:11:11.632Z,69.58
2018-01-07T18:13:40.318Z,69.75
2018-01-07T18:16:08.904Z,69.00
2018-01-07T18:18:37.787Z,69.56
2018-01-07T18:21:06.419Z,68.58
2018-01-07T18:23:35.885Z,68.83
2018-01-07T18:26:04.766Z,69.67
2018-01-07T18:28:33.450Z,70.76
2018-01-07T18:31:02.137Z,71.71
2018-01-07T18:33:30.831Z,70.80
2018-01-07T18:35:59.478Z,72.42
2018-01-07T18:38:28.194Z,71.48
2018-01-07T18:40:56.985Z,71.04
2018-01-07T18:43:25.569Z,71.09
2018-01-07T18:45:54.152Z,72.34
2018-01-07T18:48:23.047Z,72.94
2018-01-07T18:50:51.834Z,74.58
2018-01-07T18:53:20.401Z,73.64
2018-01-07T18:55:49.203Z,74.17
2018-01-07T18:58:17.889Z,74.45
2018-01-07T19:00:46.577Z,73.30
2018-01-07T19:03:15.468Z,72.84
2018-01-07T19:05:44.025Z,72.13
2018-01-07T19:08:12.683Z,73.23
2018-01-07T19:10:41.416Z,73.36
2018-01-07T19:13:10.004Z,72.97
2018-01-07T19:15:38.589Z,72.73
2018-01-07T19:18:07.728Z,73.37
2018-01-07T19:20:37.143Z,72.63
2018-01-07T19:23:05.767Z,73.43
2018-01-07T19:25:34.632Z,72.84
2018-01-07T19:28:03.348Z,72.78
2018-01-07T19:30:32.033Z,72.12
2018-01-07T19:33:01.182Z,71.74
2018-01-07T19:35:30.500Z,73.07
2018-01-07T19:37:59.094Z,72.56
2018-01-07T19:40:27.862Z,73.02
2018-01-07T19:42:56.420Z,74.38
2018-01-07T19:45:25.846Z,75.09
2018-01-07T19:47:54.883Z,75.29
2018-01-07T19:50:23.460Z,77.04
2018-01-07T19:52:52.145Z,75.47
2018-01-07T19:55:21.347Z,75.50
2018-01-07T19:57:49.989Z,74.32
2018-01-07T20:00:18.705Z,72.96
2018-01-07T20:02:47.611Z,73.77
2018-01-07T20:05:16.237Z,75.93
2018-01-07T20:07:45.633Z,74.67
2018-01-07T20:10:15.252Z,75.06
2018-01-07T20:12:44.703Z,75.04
2018-01-07T20:15:13.387Z,75.12
2018-01-07T20:17:42.076Z,75.95
2018-01-07T20:20:10.731Z,75.87
2018-01-07T20:22:39.415Z,76.00
2018-01-07T20:25:08.408Z,75.60
2018-01-07T20:27:37.123Z,74.55
2018-01-07T20:30:05.769Z,74.99
2018-01-07T20:32:34.761Z,76.20
2018-01-07T20:35:03.491Z,74.92
2018-01-07T20:37:32.081Z,74.91
2018-01-07T20:40:00.789Z,74.36
2018-01-07T20:42:30.205Z,76.88
2018-01-07T20:44:58.897Z,75.09
2018-01-07T20:47:28.417Z,74.75
2018-01-07T20:49:57.139Z,74.07
2018-01-07T20:52:25.933Z,74.93
2018-01-07T20:54:54.671Z,75.37
2018-01-07T20:57:24.120Z,74.84
2018-01-07T20:59:52.804Z,74.12
2018-01-07T21:02:21.649Z,75.21
2018-01-07T21:04:51.096Z,76.30
2018-01-07T21:07:19.990Z,76.47
2018-01-07T21:09:48.983Z,76.12
2018-01-07T21:12:17.768Z,76.67
2018-01-07T21:14:46.563Z,75.53
2018-01-07T21:17:15.304Z,75.47
2018-01-07T21:19:44.032Z,76.66
2018-01-07T21:22:12.719Z,74.38
2018-01-07T21:24:41.714Z,73.34
2018-01-07T21:27:10.399Z,73.82
2018-01-07T21:29:39.043Z,73.08
2018-01-07T21:32:07.772Z,73.50
2018-01-07T21:34:36.455Z,74.90
2018-01-07T21:37:05.142Z,73.75
2018-01-07T21:39:34.115Z,74.30
2018-01-07T21:42:02.782Z,75.09
2018-01-07T21:44:31.506Z,74.99
2018-01-07T21:47:00.442Z,74.47
2018-01-07T21:49:29.862Z,75.44
2018-01-07T21:51:58.583Z,75.05
2018-01-07T21:54:27.378Z,75.56
2018-01-07T21:56:55.956Z,75.60
2018-01-07T21:59:24.750Z,75.25
2018-01-07T22:02:11.494Z,75.49
2018-01-07T22:04:55.705Z,75.12
2018-01-07T22:07:24.908Z,75.07
2018-01-07T22:09:53.547Z,75.21
2018-01-07T22:12:22.277Z,74.24
2018-01-07T22:14:50.964Z,74.41
2018-01-07T22:17:19.650Z,75.11
2018-01-07T22:19:48.421Z,73.97
2018-01-07T22:22:17.189Z,74.31
2018-01-07T22:24:45.904Z,74.86
2018-01-07T22:27:14.590Z,75.09
2018-01-07T22:29:43.542Z,74.17
2018-01-07T22:32:12.269Z,74.36
2018-01-07T22:34:41.064Z,75.38
2018-01-07T22:37:09.750Z,75.57
2018-01-07T22:39:38.435Z,75.89
2018-01-07T22:42:07.281Z,76.77
2018-01-07T22:44:35.974Z,74.85
2018-01-07T22:47:04.696Z,74.02
2018-01-07T22:49:33.333Z,74.05
2018-01-07T22:52:02.027Z,74.58
2018-01-07T22:54:30.749Z,74.05
2018-01-07T22:56:59.387Z,74.46
2018-01-07T22:59:28.121Z,74.20
2018-01-07T23:01:56.808Z,73.68
2018-01-07T23:04:25.490Z,73.92
2018-01-07T23:06:54.458Z,74.03
2018-01-07T23:09:23.170Z,73.56
2018-01-07T23:11:51.856Z,73.45
2018-01-07T23:14:20.599Z,73.76
2018-01-07T23:16:49.951Z,73.70
2018-01-07T23:19:18.636Z,73.88
2018-01-07T23:21:47.444Z,73.56
2018-01-07T23:24:16.205Z,73.10
2018-01-07T23:26:44.892Z,74.38
2018-01-07T23:29:13.842Z,73.72
2018-01-07T23:31:42.571Z,73.45
2018-01-07T23:34:11.156Z,73.69
2018-01-07T23:36:39.895Z,72.91
2018-01-07T23:39:08.588Z,74.54
2018-01-07T23:41:37.314Z,74.55
2018-01-07T23:44:07.130Z,73.96
2018-01-07T23:46:35.915Z,73.69
2018-01-07T23:49:04.600Z,73.96
2018-01-07T23:51:33.752Z,74.73
2018-01-07T23:54:03.205Z,74.80
2018-01-07T23:56:31.885Z,74.10
2018-01-07T23:59:00.880Z,73.38
